createdAt,value
2023-01-17T00:02:26.440Z,52.96
2023-01-17T00:05:12.253Z,52.88
2023-01-17T00:07:57.809Z,53.05
2023-01-17T00:10:27.830Z,53.03
2023-01-17T00:12:58.981Z,53.04
2023-01-17T00:15:28.584Z,53.06
2023-01-17T00:17:56.758Z,53.03
2023-01-17T00:20:44.315Z,53.39
2023-01-17T00:23:34.754Z,53.52
2023-01-17T00:26:05.542Z,53.41
2023-01-17T00:28:36.286Z,53.43
2023-01-17T00:31:04.625Z,53.71
2023-01-17T00:33:31.599Z,53.90
2023-01-17T00:36:00.067Z,54.00
2023-01-17T00:38:28.787Z,53.92
2023-01-17T00:41:01.965Z,54.30
2023-01-17T00:43:48.809Z,54.21
2023-01-17T00:46:36.262Z,54.17
2023-01-17T00:49:22.641Z,54.07
2023-01-17T00:52:08.421Z,53.95
2023-01-17T00:54:54.258Z,53.75
2023-01-17T00:57:39.692Z,53.62
2023-01-17T01:00:27.238Z,53.71
2023-01-17T01:03:14.128Z,53.66
2023-01-17T01:05:59.994Z,53.79
2023-01-17T01:08:48.051Z,53.77
2023-01-17T01:11:36.411Z,53.86
2023-01-17T01:14:24.717Z,53.56
2023-01-17T01:17:10.557Z,53.78
2023-01-17T01:19:57.313Z,53.64
2023-01-17T01:22:43.164Z,53.83
2023-01-17T01:25:28.777Z,54.04
2023-01-17T01:28:22.320Z,53.91
2023-01-17T01:31:08.027Z,53.99
2023-01-17T01:33:41.295Z,54.03
2023-01-17T01:36:10.985Z,53.92
2023-01-17T01:38:39.362Z,53.92
2023-01-17T01:41:07.472Z,54.12
2023-01-17T01:43:43.496Z,53.95
2023-01-17T01:46:14.345Z,53.78
2023-01-17T01:48:48.322Z,53.62
2023-01-17T01:51:21.763Z,53.87
2023-01-17T01:53:55.260Z,53.84
2023-01-17T01:56:24.664Z,53.70
2023-01-17T01:58:53.998Z,53.92
2023-01-17T02:01:22.255Z,53.75
2023-01-17T02:03:51.223Z,54.12
2023-01-17T02:06:31.348Z,54.17
2023-01-17T02:09:03.495Z,54.07
2023-01-17T02:11:31.978Z,54.36
2023-01-17T02:14:00.372Z,54.32
2023-01-17T02:16:44.433Z,54.80
2023-01-17T02:19:37.106Z,54.80
2023-01-17T02:22:23.974Z,54.59
2023-01-17T02:25:24.341Z,54.37
2023-01-17T02:28:08.891Z,55.34
2023-01-17T02:30:42.268Z,54.95
2023-01-17T02:33:19.013Z,54.28
2023-01-17T02:35:57.272Z,54.95
2023-01-17T02:38:33.168Z,54.93
2023-01-17T02:41:05.317Z,55.14
2023-01-17T02:43:35.961Z,55.11
2023-01-17T02:46:06.126Z,55.49
2023-01-17T02:48:37.525Z,55.87
2023-01-17T02:51:19.273Z,55.66
2023-01-17T02:53:59.960Z,55.84
2023-01-17T02:56:42.207Z,56.63
2023-01-17T02:59:22.006Z,56.92
2023-01-17T03:02:05.013Z,57.09
2023-01-17T03:04:38.932Z,56.86
2023-01-17T03:07:16.283Z,56.44
2023-01-17T03:09:46.773Z,55.96
2023-01-17T03:12:15.463Z,56.69
2023-01-17T03:14:43.537Z,56.95
2023-01-17T03:17:13.249Z,56.20
2023-01-17T03:19:41.635Z,56.94
2023-01-17T03:22:09.815Z,56.93
2023-01-17T03:24:38.516Z,56.43
2023-01-17T03:27:06.801Z,56.93
2023-01-17T03:29:34.857Z,56.74
2023-01-17T03:32:02.882Z,55.72
2023-01-17T03:34:32.581Z,55.83
2023-01-17T03:37:00.596Z,55.41
2023-01-17T03:39:28.544Z,55.55
2023-01-17T03:41:56.771Z,55.53
2023-01-17T03:44:24.745Z,55.31
2023-01-17T03:46:52.719Z,55.11
2023-01-17T03:49:21.157Z,55.22
2023-01-17T03:51:50.519Z,55.07
2023-01-17T03:54:18.605Z,54.86
2023-01-17T03:56:47.085Z,54.93
2023-01-17T03:59:15.186Z,55.43
2023-01-17T04:01:43.342Z,55.65
2023-01-17T04:04:11.583Z,54.94
2023-01-17T04:06:39.594Z,55.06
2023-01-17T04:09:09.035Z,55.47
2023-01-17T04:11:37.321Z,54.97
2023-01-17T04:14:05.230Z,55.08
2023-01-17T04:16:33.772Z,55.57
2023-01-17T04:19:02.229Z,55.03
2023-01-17T04:21:30.304Z,55.11
2023-01-17T04:23:58.432Z,55.85
2023-01-17T04:26:28.133Z,55.34
2023-01-17T04:28:56.188Z,55.62
2023-01-17T04:31:24.214Z,55.84
2023-01-17T04:33:52.433Z,56.25
2023-01-17T04:36:20.422Z,55.62
2023-01-17T04:38:48.492Z,55.92
2023-01-17T04:41:16.706Z,55.78
2023-01-17T04:43:45.907Z,56.06
2023-01-17T04:46:13.989Z,55.28
2023-01-17T04:48:42.231Z,55.81
2023-01-17T04:51:10.244Z,55.72
2023-01-17T04:53:38.631Z,56.03
2023-01-17T04:56:07.488Z,56.18
2023-01-17T04:58:35.551Z,56.04
2023-01-17T05:01:05.751Z,55.82
2023-01-17T05:03:35.415Z,56.13
2023-01-17T05:06:03.520Z,55.92
2023-01-17T05:08:31.674Z,55.53
2023-01-17T05:10:59.948Z,55.47
2023-01-17T05:13:28.046Z,55.79
2023-01-17T05:15:58.388Z,55.37
2023-01-17T05:18:28.210Z,55.58
2023-01-17T05:21:02.258Z,55.58
2023-01-17T05:23:30.596Z,55.74
2023-01-17T05:25:58.568Z,55.42
2023-01-17T05:28:26.687Z,54.67
2023-01-17T05:30:54.912Z,55.22
2023-01-17T05:33:23.642Z,54.84
2023-01-17T05:35:53.174Z,54.81
2023-01-17T05:38:22.583Z,54.52
2023-01-17T05:40:51.284Z,54.91
2023-01-17T05:43:20.280Z,54.81
2023-01-17T05:45:50.637Z,54.80
2023-01-17T05:48:18.710Z,54.76
2023-01-17T05:50:46.873Z,54.66
2023-01-17T05:53:18.034Z,54.72
2023-01-17T05:55:46.326Z,54.55
2023-01-17T05:58:16.921Z,54.51
2023-01-17T06:00:45.368Z,54.69
2023-01-17T06:03:13.765Z,55.35
2023-01-17T06:05:42.181Z,55.83
2023-01-17T06:08:11.082Z,55.11
2023-01-17T06:10:41.011Z,54.96
2023-01-17T06:13:12.244Z,54.84
2023-01-17T06:15:41.181Z,54.57
2023-01-17T06:18:11.287Z,54.86
2023-01-17T06:20:40.887Z,54.78
2023-01-17T06:23:11.742Z,54.48
2023-01-17T06:25:44.042Z,54.57
2023-01-17T06:28:14.450Z,54.82
2023-01-17T06:30:43.903Z,54.56
2023-01-17T06:33:12.865Z,54.46
2023-01-17T06:35:44.226Z,54.42
2023-01-17T06:38:12.380Z,55.16
2023-01-17T06:40:41.952Z,54.75
2023-01-17T06:43:10.116Z,55.08
2023-01-17T06:45:38.520Z,54.82
2023-01-17T06:48:07.239Z,55.37
2023-01-17T06:50:35.603Z,54.85
2023-01-17T06:53:06.293Z,54.83
2023-01-17T06:55:35.884Z,54.93
2023-01-17T06:58:05.596Z,55.34
2023-01-17T07:00:35.181Z,55.30
2023-01-17T07:03:03.606Z,55.14
2023-01-17T07:05:32.872Z,54.89
2023-01-17T07:08:00.875Z,55.12
2023-01-17T07:10:29.279Z,55.40
2023-01-17T07:13:00.648Z,55.02
2023-01-17T07:15:30.419Z,54.71
2023-01-17T07:18:01.423Z,55.20
2023-01-17T07:20:29.712Z,54.79
2023-01-17T07:22:57.690Z,54.78
2023-01-17T07:25:27.759Z,54.77
2023-01-17T07:27:57.568Z,54.69
2023-01-17T07:30:27.047Z,54.51
2023-01-17T07:32:56.997Z,54.59
2023-01-17T07:35:27.151Z,54.62
2023-01-17T07:37:56.092Z,54.70
2023-01-17T07:40:25.112Z,54.21
2023-01-17T07:42:53.097Z,54.49
2023-01-17T07:45:21.943Z,54.61
2023-01-17T07:47:50.272Z,54.38
2023-01-17T07:50:19.828Z,54.18
2023-01-17T07:52:50.228Z,54.04
2023-01-17T07:55:18.497Z,54.26
2023-01-17T07:57:50.073Z,54.25
2023-01-17T08:00:19.542Z,54.21
2023-01-17T08:02:48.048Z,54.35
2023-01-17T08:05:16.419Z,54.21
2023-01-17T08:07:45.904Z,53.91
2023-01-17T08:10:17.970Z,53.61
2023-01-17T08:12:46.975Z,54.20
2023-01-17T08:15:16.394Z,53.73
2023-01-17T08:17:47.031Z,53.79
2023-01-17T08:20:16.107Z,53.71
2023-01-17T08:22:46.196Z,54.07
2023-01-17T08:25:14.505Z,53.61
2023-01-17T08:27:42.793Z,53.76
2023-01-17T08:30:11.996Z,53.54
2023-01-17T08:32:40.875Z,53.26
2023-01-17T08:35:10.492Z,52.99
2023-01-17T08:37:39.167Z,52.94
2023-01-17T08:40:11.093Z,53.05
2023-01-17T08:42:40.995Z,52.79
2023-01-17T08:45:11.231Z,52.48
2023-01-17T08:47:39.816Z,52.56
2023-01-17T08:50:08.587Z,51.94
2023-01-17T08:52:37.070Z,52.12
2023-01-17T08:55:06.529Z,52.43
2023-01-17T08:57:35.909Z,51.99
2023-01-17T09:00:04.731Z,52.55
2023-01-17T09:02:33.225Z,52.41
2023-01-17T09:05:01.516Z,51.87
2023-01-17T09:07:29.482Z,51.28
2023-01-17T09:09:57.851Z,51.57
2023-01-17T09:12:25.982Z,51.66
2023-01-17T09:14:55.303Z,51.33
2023-01-17T09:17:23.565Z,51.42
2023-01-17T09:19:52.487Z,51.51
2023-01-17T09:22:20.460Z,51.60
2023-01-17T09:24:48.865Z,52.25
2023-01-17T09:27:16.838Z,51.64
2023-01-17T09:29:45.186Z,52.24
2023-01-17T09:32:17.085Z,51.81
2023-01-17T09:34:45.343Z,51.67
2023-01-17T09:37:13.579Z,52.16
2023-01-17T09:39:41.474Z,51.91
2023-01-17T09:42:21.664Z,52.30
2023-01-17T09:44:52.472Z,51.80
2023-01-17T09:47:32.383Z,52.24
2023-01-17T09:50:28.558Z,51.60
2023-01-17T09:53:01.566Z,51.63
2023-01-17T09:55:35.371Z,51.25
2023-01-17T09:58:09.465Z,52.01
2023-01-17T10:00:47.694Z,51.52
2023-01-17T10:03:32.561Z,51.34
2023-01-17T10:06:31.944Z,51.02
2023-01-17T10:09:17.272Z,51.11
2023-01-17T10:11:56.550Z,51.17
2023-01-17T10:14:41.679Z,51.54
2023-01-17T10:17:16.128Z,51.29
2023-01-17T10:19:57.262Z,50.65
2023-01-17T10:22:43.404Z,51.11
2023-01-17T10:25:24.345Z,51.02
2023-01-17T10:27:58.753Z,50.58
2023-01-17T10:30:33.531Z,50.89
2023-01-17T10:33:05.148Z,51.02
2023-01-17T10:35:37.958Z,51.25
2023-01-17T10:38:12.956Z,51.49
2023-01-17T10:40:45.778Z,50.88
2023-01-17T10:43:19.362Z,50.50
2023-01-17T10:45:53.857Z,50.80
2023-01-17T10:48:35.016Z,50.75
2023-01-17T10:51:21.903Z,50.45
2023-01-17T10:54:04.460Z,49.55
2023-01-17T10:56:34.657Z,49.81
2023-01-17T10:59:17.291Z,50.10
2023-01-17T11:01:46.209Z,50.19
2023-01-17T11:04:19.829Z,50.94
2023-01-17T11:07:14.374Z,50.57
2023-01-17T11:09:43.888Z,49.34
2023-01-17T11:12:25.683Z,50.83
2023-01-17T11:15:00.933Z,47.23
2023-01-17T11:17:30.445Z,48.96
2023-01-17T11:20:19.944Z,47.95
2023-01-17T11:23:05.594Z,47.23
2023-01-17T11:25:35.055Z,48.31
2023-01-17T11:28:06.092Z,49.52
2023-01-17T11:30:34.788Z,48.37
2023-01-17T11:33:06.202Z,49.35
2023-01-17T11:35:36.796Z,49.07
2023-01-17T11:38:13.018Z,49.24
2023-01-17T11:40:42.983Z,49.56
2023-01-17T11:43:24.074Z,49.96
2023-01-17T11:46:04.317Z,48.65
2023-01-17T11:48:37.845Z,48.45
2023-01-17T11:51:18.595Z,49.24
2023-01-17T11:53:49.134Z,48.95
2023-01-17T11:56:27.437Z,49.96
2023-01-17T11:59:14.823Z,49.26
2023-01-17T12:01:48.331Z,48.32
2023-01-17T12:04:25.157Z,48.83
2023-01-17T12:07:09.208Z,48.10
2023-01-17T12:09:47.560Z,48.64
2023-01-17T12:12:43.055Z,48.72
2023-01-17T12:15:30.911Z,48.71
2023-01-17T12:18:18.987Z,47.09
2023-01-17T12:20:59.004Z,47.05
2023-01-17T12:23:41.890Z,47.18
2023-01-17T12:26:24.704Z,47.12
2023-01-17T12:29:08.502Z,47.01
2023-01-17T12:31:44.731Z,47.83
2023-01-17T12:34:24.644Z,47.10
2023-01-17T12:36:57.146Z,47.53
2023-01-17T12:39:31.389Z,49.00
2023-01-17T12:42:05.781Z,49.45
2023-01-17T12:44:51.619Z,49.30
2023-01-17T12:47:21.847Z,49.18
2023-01-17T12:49:58.334Z,48.90
2023-01-17T12:52:39.694Z,48.54
2023-01-17T12:55:15.482Z,47.87
2023-01-17T12:57:48.796Z,48.93
2023-01-17T13:00:22.958Z,48.88
2023-01-17T13:02:58.165Z,49.48
2023-01-17T13:05:31.754Z,48.78
2023-01-17T13:08:07.620Z,49.27
2023-01-17T13:10:40.672Z,49.66
2023-01-17T13:13:22.487Z,49.66
2023-01-17T13:15:54.205Z,49.54
2023-01-17T13:18:26.968Z,49.49
2023-01-17T13:21:21.189Z,49.95
2023-01-17T13:24:05.982Z,49.40
2023-01-17T13:26:45.989Z,49.42
2023-01-17T13:29:25.930Z,49.37
2023-01-17T13:32:07.131Z,48.26
2023-01-17T13:34:58.185Z,48.88
2023-01-17T13:38:03.030Z,48.36
2023-01-17T13:40:40.526Z,47.69
2023-01-17T13:43:15.469Z,48.46
2023-01-17T13:45:53.897Z,49.26
2023-01-17T13:48:32.309Z,48.58
2023-01-17T13:51:02.284Z,47.84
2023-01-17T13:53:47.665Z,48.31
2023-01-17T13:56:25.053Z,46.16
2023-01-17T13:58:58.784Z,47.85
2023-01-17T14:01:54.376Z,48.40
2023-01-17T14:04:23.878Z,46.34
2023-01-17T14:06:59.487Z,47.18
2023-01-17T14:09:37.943Z,47.74
2023-01-17T14:12:08.076Z,47.55
2023-01-17T14:14:49.797Z,48.08
2023-01-17T14:17:47.649Z,47.29
2023-01-17T14:20:41.299Z,47.05
2023-01-17T14:23:34.339Z,47.42
2023-01-17T14:26:19.446Z,47.26
2023-01-17T14:28:47.601Z,48.31
2023-01-17T14:31:17.929Z,48.40
2023-01-17T14:33:47.701Z,49.07
2023-01-17T14:36:25.531Z,49.14
2023-01-17T14:38:53.486Z,48.83
2023-01-17T14:41:24.903Z,49.07
2023-01-17T14:43:53.834Z,49.21
2023-01-17T14:46:26.534Z,49.18
2023-01-17T14:49:02.784Z,48.69
2023-01-17T14:51:35.109Z,47.91
2023-01-17T14:54:06.217Z,47.98
2023-01-17T14:56:35.236Z,48.70
2023-01-17T14:59:12.913Z,48.70
2023-01-17T15:01:41.999Z,48.28
2023-01-17T15:04:24.854Z,48.59
2023-01-17T15:06:53.688Z,47.60
2023-01-17T15:09:24.839Z,48.29
2023-01-17T15:11:55.218Z,48.49
2023-01-17T15:14:27.241Z,48.53
2023-01-17T15:16:56.147Z,48.56
2023-01-17T15:19:25.444Z,48.62
2023-01-17T15:21:55.156Z,48.81
2023-01-17T15:24:27.613Z,48.99
2023-01-17T15:26:55.714Z,49.12
2023-01-17T15:29:26.782Z,49.12
2023-01-17T15:31:58.270Z,49.15
2023-01-17T15:34:30.699Z,49.28
2023-01-17T15:37:01.124Z,49.35
2023-01-17T15:39:32.272Z,49.14
2023-01-17T15:42:03.165Z,49.22
2023-01-17T15:44:50.270Z,49.21
2023-01-17T15:47:28.393Z,49.28
2023-01-17T15:49:58.729Z,49.14
2023-01-17T15:52:27.063Z,49.25
2023-01-17T15:54:59.001Z,49.48
2023-01-17T15:57:29.548Z,49.60
2023-01-17T16:00:01.853Z,49.38
2023-01-17T16:02:36.724Z,49.24
2023-01-17T16:05:41.886Z,49.25
2023-01-17T16:08:31.568Z,49.16
2023-01-17T16:11:02.875Z,48.94
2023-01-17T16:13:32.720Z,49.19
2023-01-17T16:16:12.034Z,49.19
2023-01-17T16:18:40.362Z,49.08
2023-01-17T16:21:18.640Z,49.27
2023-01-17T16:23:47.102Z,49.30
2023-01-17T16:26:16.570Z,49.40
2023-01-17T16:28:44.897Z,49.45
2023-01-17T16:31:15.856Z,49.63
2023-01-17T16:33:45.945Z,49.71
2023-01-17T16:36:17.208Z,49.89
2023-01-17T16:38:46.722Z,49.88
2023-01-17T16:41:14.789Z,49.86
2023-01-17T16:43:43.190Z,49.85
2023-01-17T16:46:13.005Z,49.93
2023-01-17T16:48:41.076Z,50.11
2023-01-17T16:51:09.521Z,50.24
2023-01-17T16:53:39.083Z,50.15
2023-01-17T16:56:11.898Z,50.12
2023-01-17T16:58:40.266Z,50.08
2023-01-17T17:01:15.444Z,50.07
2023-01-17T17:03:44.698Z,50.23
2023-01-17T17:06:13.362Z,50.45
2023-01-17T17:08:43.142Z,50.19
2023-01-17T17:11:14.637Z,50.23
2023-01-17T17:13:44.260Z,50.35
2023-01-17T17:16:15.880Z,50.27
2023-01-17T17:18:44.824Z,50.33
2023-01-17T17:21:14.033Z,50.64
2023-01-17T17:23:43.343Z,50.91
2023-01-17T17:26:11.315Z,50.96
2023-01-17T17:28:39.484Z,50.79
2023-01-17T17:31:10.457Z,50.72
2023-01-17T17:33:38.846Z,50.83
2023-01-17T17:36:10.757Z,50.79
2023-01-17T17:38:51.034Z,50.71
2023-01-17T17:41:22.959Z,50.73
2023-01-17T17:43:52.270Z,51.14
2023-01-17T17:46:21.654Z,51.14
2023-01-17T17:48:50.389Z,51.03
2023-01-17T17:51:26.655Z,50.98
2023-01-17T17:53:56.789Z,51.11
2023-01-17T17:56:26.147Z,51.22
2023-01-17T17:58:54.598Z,51.67
2023-01-17T18:01:24.239Z,51.77
2023-01-17T18:03:53.589Z,51.56
2023-01-17T18:06:22.136Z,51.51
2023-01-17T18:08:52.120Z,51.70
2023-01-17T18:11:22.756Z,51.32
2023-01-17T18:13:53.377Z,51.84
2023-01-17T18:16:25.738Z,51.69
2023-01-17T18:18:55.242Z,52.08
2023-01-17T18:21:25.505Z,51.63
2023-01-17T18:23:56.651Z,51.42
2023-01-17T18:26:26.753Z,51.34
2023-01-17T18:28:57.730Z,51.24
2023-01-17T18:31:27.582Z,51.18
2023-01-17T18:33:56.927Z,51.18
2023-01-17T18:36:26.233Z,51.15
2023-01-17T18:38:54.398Z,51.10
2023-01-17T18:41:25.266Z,51.22
2023-01-17T18:43:56.025Z,51.25
2023-01-17T18:46:28.110Z,51.72
2023-01-17T18:48:57.849Z,52.29
2023-01-17T18:51:26.238Z,52.54
2023-01-17T18:53:54.866Z,52.55
2023-01-17T18:56:24.055Z,52.49
2023-01-17T18:58:52.252Z,52.56
2023-01-17T19:01:22.174Z,52.71
2023-01-17T19:03:54.071Z,52.56
2023-01-17T19:06:24.249Z,52.62
2023-01-17T19:08:52.819Z,52.44
2023-01-17T19:11:22.051Z,52.02
2023-01-17T19:13:50.967Z,51.93
2023-01-17T19:16:24.340Z,51.97
2023-01-17T19:18:53.885Z,51.79
2023-01-17T19:21:24.240Z,52.23
2023-01-17T19:23:52.490Z,52.37
2023-01-17T19:26:22.892Z,52.38
2023-01-17T19:28:51.851Z,52.31
2023-01-17T19:31:22.103Z,52.39
2023-01-17T19:33:52.426Z,52.81
2023-01-17T19:36:23.634Z,52.83
2023-01-17T19:39:04.105Z,53.57
2023-01-17T19:41:34.563Z,53.63
2023-01-17T19:44:05.938Z,53.31
2023-01-17T19:46:34.611Z,53.17
2023-01-17T19:49:03.656Z,53.23
2023-01-17T19:51:32.882Z,53.17
2023-01-17T19:54:01.853Z,53.53
2023-01-17T19:56:30.881Z,53.43
2023-01-17T19:59:01.353Z,53.41
2023-01-17T20:01:32.777Z,52.94
2023-01-17T20:04:02.506Z,52.89
2023-01-17T20:06:34.250Z,52.51
2023-01-17T20:09:02.867Z,52.76
2023-01-17T20:11:30.927Z,52.60
2023-01-17T20:14:00.110Z,52.54
2023-01-17T20:16:30.725Z,52.65
2023-01-17T20:18:59.467Z,52.58
2023-01-17T20:21:29.158Z,52.34
2023-01-17T20:24:00.557Z,52.25
2023-01-17T20:26:34.624Z,52.17
2023-01-17T20:29:06.879Z,52.12
2023-01-17T20:31:38.109Z,52.10
2023-01-17T20:34:08.137Z,52.52
2023-01-17T20:36:36.943Z,52.53
2023-01-17T20:39:08.075Z,52.77
2023-01-17T20:41:38.754Z,52.68
2023-01-17T20:44:08.969Z,52.80
2023-01-17T20:46:41.149Z,52.73
2023-01-17T20:49:14.739Z,53.74
2023-01-17T20:51:44.305Z,53.63
2023-01-17T20:54:15.615Z,53.64
2023-01-17T20:56:44.403Z,53.03
2023-01-17T20:59:14.713Z,53.44
2023-01-17T21:01:44.266Z,54.25
2023-01-17T21:04:13.122Z,54.47
2023-01-17T21:06:42.717Z,53.60
2023-01-17T21:09:14.968Z,53.35
2023-01-17T21:11:43.370Z,53.09
2023-01-17T21:14:11.335Z,53.60
2023-01-17T21:16:39.447Z,54.00
2023-01-17T21:19:11.898Z,54.19
2023-01-17T21:21:40.138Z,54.67
2023-01-17T21:24:08.623Z,54.16
2023-01-17T21:26:39.958Z,54.21
2023-01-17T21:29:09.659Z,54.55
2023-01-17T21:31:40.225Z,54.35
2023-01-17T21:34:10.421Z,54.35
2023-01-17T21:36:40.772Z,54.64
2023-01-17T21:39:12.645Z,54.70
2023-01-17T21:41:42.841Z,55.02
2023-01-17T21:44:14.741Z,54.39
2023-01-17T21:46:43.072Z,54.30
2023-01-17T21:49:12.092Z,54.45
2023-01-17T21:52:00.478Z,54.34
2023-01-17T21:54:44.662Z,54.28
2023-01-17T21:57:32.483Z,54.11
2023-01-17T22:00:00.897Z,54.84
2023-01-17T22:02:28.903Z,54.23
2023-01-17T22:04:57.382Z,53.65
2023-01-17T22:07:27.005Z,53.71
2023-01-17T22:09:56.382Z,53.80
2023-01-17T22:12:26.005Z,53.77
2023-01-17T22:14:54.458Z,53.99
2023-01-17T22:17:22.417Z,54.39
2023-01-17T22:19:50.710Z,54.51
2023-01-17T22:22:18.746Z,55.10
2023-01-17T22:24:46.858Z,54.47
2023-01-17T22:27:15.151Z,54.37
2023-01-17T22:29:44.549Z,54.70
2023-01-17T22:32:12.549Z,54.73
2023-01-17T22:34:40.723Z,54.78
2023-01-17T22:37:10.121Z,54.94
2023-01-17T22:39:38.635Z,54.63
2023-01-17T22:42:07.263Z,54.79
2023-01-17T22:44:35.260Z,54.90
2023-01-17T22:47:04.679Z,54.51
2023-01-17T22:49:32.817Z,54.30
2023-01-17T22:52:00.823Z,54.64
2023-01-17T22:54:28.790Z,54.89
2023-01-17T22:56:57.071Z,55.05
2023-01-17T22:59:25.026Z,55.14
2023-01-17T23:01:54.821Z,55.11
2023-01-17T23:04:24.399Z,55.37
2023-01-17T23:06:53.520Z,55.42
2023-01-17T23:09:21.564Z,55.31
2023-01-17T23:11:52.863Z,55.38
2023-01-17T23:14:24.474Z,55.29
2023-01-17T23:17:11.797Z,55.29
2023-01-17T23:19:43.246Z,55.33
2023-01-17T23:22:22.663Z,55.34
2023-01-17T23:24:52.573Z,55.43
2023-01-17T23:27:40.851Z,55.18
2023-01-17T23:30:12.181Z,55.33
2023-01-17T23:32:43.909Z,55.38
2023-01-17T23:35:13.689Z,55.15
2023-01-17T23:37:59.547Z,55.11
2023-01-17T23:40:27.775Z,55.32
2023-01-17T23:43:13.613Z,55.41
2023-01-17T23:45:41.700Z,54.96
2023-01-17T23:48:10.753Z,54.53
2023-01-17T23:50:42.481Z,54.57
2023-01-17T23:53:11.922Z,54.96
2023-01-17T23:55:43.442Z,54.76
2023-01-17T23:58:12.703Z,54.55
